sensor_id;sensor_type;location;lat;lon;timestamp;pressure;altitude;pressure_sealevel;temperature;humidity
79692;BME280;69158;55.592;37.610;2023-05-10T00:02:13;100328.72;;;9.61;29.22
79692;BME280;69158;55.592;37.610;2023-05-10T00:04:59;100327.56;;;9.63;29.77
79692;BME280;69158;55.592;37.610;2023-05-10T00:07:45;100322.31;;;9.63;28.50
79692;BME280;69158;55.592;37.610;2023-05-10T00:10:30;100322.03;;;9.66;29.30
79692;BME280;69158;55.592;37.610;2023-05-10T00:13:16;100334.16;;;9.75;29.90
79692;BME280;69158;55.592;37.610;2023-05-10T00:16:02;100346.13;;;9.70;29.26
79692;BME280;69158;55.592;37.610;2023-05-10T00:18:49;100335.78;;;9.68;29.74
79692;BME280;69158;55.592;37.610;2023-05-10T00:21:35;100339.91;;;9.71;29.82
79692;BME280;69158;55.592;37.610;2023-05-10T00:24:22;100336.59;;;9.69;30.23
79692;BME280;69158;55.592;37.610;2023-05-10T00:27:08;100313.06;;;9.43;30.66
79692;BME280;69158;55.592;37.610;2023-05-10T00:29:54;100337.38;;;9.53;30.74
79692;BME280;69158;55.592;37.610;2023-05-10T00:32:41;100338.03;;;9.55;31.47
79692;BME280;69158;55.592;37.610;2023-05-10T00:35:27;100336.91;;;9.57;30.33
79692;BME280;69158;55.592;37.610;2023-05-10T00:38:13;100321.66;;;9.53;30.29
79692;BME280;69158;55.592;37.610;2023-05-10T00:41:03;100344.25;;;9.62;29.92
79692;BME280;69158;55.592;37.610;2023-05-10T00:43:49;100343.63;;;9.60;30.45
79692;BME280;69158;55.592;37.610;2023-05-10T00:46:35;100334.91;;;9.51;30.52
79692;BME280;69158;55.592;37.610;2023-05-10T00:49:21;100341.13;;;9.58;30.86
79692;BME280;69158;55.592;37.610;2023-05-10T00:52:08;100344.41;;;9.52;30.94
79692;BME280;69158;55.592;37.610;2023-05-10T00:54:54;100347.38;;;9.57;30.52
79692;BME280;69158;55.592;37.610;2023-05-10T00:57:41;100343.41;;;9.53;31.10
79692;BME280;69158;55.592;37.610;2023-05-10T01:00:26;100338.97;;;9.46;31.64
79692;BME280;69158;55.592;37.610;2023-05-10T01:03:13;100345.94;;;9.37;32.78
79692;BME280;69158;55.592;37.610;2023-05-10T01:06:00;100338.91;;;9.38;31.08
79692;BME280;69158;55.592;37.610;2023-05-10T01:08:48;100336.19;;;9.47;29.22
79692;BME280;69158;55.592;37.610;2023-05-10T01:11:36;100334.28;;;9.57;29.81
79692;BME280;69158;55.592;37.610;2023-05-10T01:14:24;100334.78;;;9.61;28.87
79692;BME280;69158;55.592;37.610;2023-05-10T01:17:12;100309.50;;;9.44;30.98
79692;BME280;69158;55.592;37.610;2023-05-10T01:19:59;100340.78;;;9.53;32.50
79692;BME280;69158;55.592;37.610;2023-05-10T01:32:29;100328.44;;;9.38;31.54
79692;BME280;69158;55.592;37.610;2023-05-10T01:48:10;100324.44;;;9.26;31.65
79692;BME280;69158;55.592;37.610;2023-05-10T01:50:57;100330.97;;;9.22;33.32
79692;BME280;69158;55.592;37.610;2023-05-10T01:53:45;100312.56;;;9.05;33.77
79692;BME280;69158;55.592;37.610;2023-05-10T01:56:33;100337.03;;;9.22;32.84
79692;BME280;69158;55.592;37.610;2023-05-10T01:59:21;100327.03;;;9.18;32.99
79692;BME280;69158;55.592;37.610;2023-05-10T02:02:08;100327.25;;;9.06;33.05
79692;BME280;69158;55.592;37.610;2023-05-10T02:04:58;100313.88;;;9.09;32.36
79692;BME280;69158;55.592;37.610;2023-05-10T02:08:05;100317.88;;;9.22;31.62
79692;BME280;69158;55.592;37.610;2023-05-10T02:10:53;100298.69;;;9.13;31.55
79692;BME280;69158;55.592;37.610;2023-05-10T02:13:42;100322.84;;;9.33;31.81
79692;BME280;69158;55.592;37.610;2023-05-10T02:16:30;100318.06;;;9.28;30.93
79692;BME280;69158;55.592;37.610;2023-05-10T02:19:17;100293.94;;;9.17;30.86
79692;BME280;69158;55.592;37.610;2023-05-10T02:22:04;100319.09;;;9.35;30.88
79692;BME280;69158;55.592;37.610;2023-05-10T02:24:52;100324.69;;;9.40;30.29
79692;BME280;69158;55.592;37.610;2023-05-10T02:27:41;100316.16;;;9.38;30.88
79692;BME280;69158;55.592;37.610;2023-05-10T02:30:29;100319.13;;;9.43;30.62
79692;BME280;69158;55.592;37.610;2023-05-10T02:33:17;100314.38;;;9.39;30.50
79692;BME280;69158;55.592;37.610;2023-05-10T02:36:06;100300.56;;;9.29;31.61
79692;BME280;69158;55.592;37.610;2023-05-10T02:38:54;100319.50;;;9.48;30.73
79692;BME280;69158;55.592;37.610;2023-05-10T02:41:43;100306.19;;;9.42;31.86
79692;BME280;69158;55.592;37.610;2023-05-10T02:44:32;100323.94;;;9.56;30.68
79692;BME280;69158;55.592;37.610;2023-05-10T02:47:31;100319.03;;;9.53;30.13
79692;BME280;69158;55.592;37.610;2023-05-10T02:50:18;100306.56;;;9.55;30.69
79692;BME280;69158;55.592;37.610;2023-05-10T02:53:10;100314.94;;;9.58;30.67
79692;BME280;69158;55.592;37.610;2023-05-10T02:56:05;100307.09;;;9.67;31.10
79692;BME280;69158;55.592;37.610;2023-05-10T02:58:57;100306.78;;;9.62;30.25
79692;BME280;69158;55.592;37.610;2023-05-10T03:01:43;100309.22;;;9.63;30.40
79692;BME280;69158;55.592;37.610;2023-05-10T03:04:29;100280.84;;;9.50;30.36
79692;BME280;69158;55.592;37.610;2023-05-10T03:07:16;100300.88;;;9.68;30.53
79692;BME280;69158;55.592;37.610;2023-05-10T03:10:05;100309.09;;;9.73;30.59
79692;BME280;69158;55.592;37.610;2023-05-10T03:13:05;100312.09;;;9.86;30.61
79692;BME280;69158;55.592;37.610;2023-05-10T03:15:59;100314.25;;;9.90;30.66
79692;BME280;69158;55.592;37.610;2023-05-10T03:21:41;100304.44;;;10.00;29.88
79692;BME280;69158;55.592;37.610;2023-05-10T03:24:35;100306.75;;;10.03;29.93
79692;BME280;69158;55.592;37.610;2023-05-10T03:27:23;100304.13;;;10.12;30.37
79692;BME280;69158;55.592;37.610;2023-05-10T03:30:12;100308.78;;;10.18;29.93
79692;BME280;69158;55.592;37.610;2023-05-10T03:33:04;100295.00;;;10.24;29.05
79692;BME280;69158;55.592;37.610;2023-05-10T03:35:50;100305.34;;;10.33;29.53
79692;BME280;69158;55.592;37.610;2023-05-10T03:38:36;100305.66;;;10.30;28.83
79692;BME280;69158;55.592;37.610;2023-05-10T03:41:23;100311.75;;;10.39;28.98
79692;BME280;69158;55.592;37.610;2023-05-10T03:44:10;100305.81;;;10.37;29.34
79692;BME280;69158;55.592;37.610;2023-05-10T03:46:58;100307.66;;;10.53;28.82
79692;BME280;69158;55.592;37.610;2023-05-10T03:49:43;100302.56;;;10.59;29.55
79692;BME280;69158;55.592;37.610;2023-05-10T03:52:29;100295.50;;;10.68;28.89
79692;BME280;69158;55.592;37.610;2023-05-10T03:55:15;100298.13;;;10.76;28.78
79692;BME280;69158;55.592;37.610;2023-05-10T03:58:02;100304.03;;;10.78;28.35
79692;BME280;69158;55.592;37.610;2023-05-10T04:00:47;100298.28;;;10.90;29.18
79692;BME280;69158;55.592;37.610;2023-05-10T04:03:33;100305.97;;;11.08;29.20
79692;BME280;69158;55.592;37.610;2023-05-10T04:06:22;100289.69;;;11.05;28.47
79692;BME280;69158;55.592;37.610;2023-05-10T04:09:08;100287.56;;;11.16;28.18
79692;BME280;69158;55.592;37.610;2023-05-10T04:11:55;100289.66;;;11.29;27.77
79692;BME280;69158;55.592;37.610;2023-05-10T04:14:40;100281.56;;;11.38;28.42
79692;BME280;69158;55.592;37.610;2023-05-10T04:17:28;100286.28;;;11.51;28.38
79692;BME280;69158;55.592;37.610;2023-05-10T04:20:14;100293.28;;;11.67;28.09
79692;BME280;69158;55.592;37.610;2023-05-10T04:23:00;100288.97;;;11.74;29.09
79692;BME280;69158;55.592;37.610;2023-05-10T04:25:47;100285.16;;;11.85;27.88
79692;BME280;69158;55.592;37.610;2023-05-10T04:28:33;100274.28;;;11.88;27.17
79692;BME280;69158;55.592;37.610;2023-05-10T04:31:19;100288.00;;;12.06;27.29
79692;BME280;69158;55.592;37.610;2023-05-10T04:34:05;100281.09;;;12.05;26.87
79692;BME280;69158;55.592;37.610;2023-05-10T04:36:51;100269.94;;;12.03;26.60
79692;BME280;69158;55.592;37.610;2023-05-10T04:39:37;100267.25;;;12.11;26.93
79692;BME280;69158;55.592;37.610;2023-05-10T04:42:23;100280.41;;;12.34;26.59
79692;BME280;69158;55.592;37.610;2023-05-10T04:45:09;100273.66;;;12.31;26.99
79692;BME280;69158;55.592;37.610;2023-05-10T04:47:56;100282.75;;;12.28;26.39
79692;BME280;69158;55.592;37.610;2023-05-10T04:50:44;100276.75;;;12.35;26.23
79692;BME280;69158;55.592;37.610;2023-05-10T04:53:29;100278.09;;;12.53;26.45
79692;BME280;69158;55.592;37.610;2023-05-10T04:56:17;100278.69;;;12.78;26.58
79692;BME280;69158;55.592;37.610;2023-05-10T04:59:03;100282.47;;;12.98;26.17
79692;BME280;69158;55.592;37.610;2023-05-10T05:01:49;100269.53;;;13.11;25.13
79692;BME280;69158;55.592;37.610;2023-05-10T05:04:35;100275.97;;;13.24;25.62
79692;BME280;69158;55.592;37.610;2023-05-10T05:07:21;100274.22;;;13.45;25.56
79692;BME280;69158;55.592;37.610;2023-05-10T05:10:09;100276.91;;;13.67;24.80
79692;BME280;69158;55.592;37.610;2023-05-10T05:12:55;100277.25;;;13.78;24.67
79692;BME280;69158;55.592;37.610;2023-05-10T05:15:42;100268.50;;;13.92;23.88
79692;BME280;69158;55.592;37.610;2023-05-10T05:18:28;100261.16;;;14.09;23.73
79692;BME280;69158;55.592;37.610;2023-05-10T05:21:15;100262.53;;;14.26;23.76
79692;BME280;69158;55.592;37.610;2023-05-10T05:24:01;100259.03;;;14.40;23.52
79692;BME280;69158;55.592;37.610;2023-05-10T05:26:47;100253.97;;;14.67;23.33
79692;BME280;69158;55.592;37.610;2023-05-10T05:29:33;100259.72;;;14.49;22.47
79692;BME280;69158;55.592;37.610;2023-05-10T05:32:20;100242.81;;;14.71;22.90
79692;BME280;69158;55.592;37.610;2023-05-10T05:35:06;100252.75;;;14.97;22.23
79692;BME280;69158;55.592;37.610;2023-05-10T05:37:53;100249.88;;;15.26;22.30
79692;BME280;69158;55.592;37.610;2023-05-10T05:40:41;100240.31;;;15.32;22.04
79692;BME280;69158;55.592;37.610;2023-05-10T05:43:27;100247.59;;;15.58;22.02
79692;BME280;69158;55.592;37.610;2023-05-10T05:46:13;100251.72;;;15.73;21.15
79692;BME280;69158;55.592;37.610;2023-05-10T05:48:59;100248.66;;;15.70;21.29
79692;BME280;69158;55.592;37.610;2023-05-10T05:51:45;100237.84;;;15.65;20.86
79692;BME280;69158;55.592;37.610;2023-05-10T05:54:32;100239.13;;;15.82;20.86
79692;BME280;69158;55.592;37.610;2023-05-10T05:57:24;100238.94;;;15.97;20.71
79692;BME280;69158;55.592;37.610;2023-05-10T06:00:15;100226.97;;;16.20;20.33
79692;BME280;69158;55.592;37.610;2023-05-10T06:03:00;100238.34;;;16.14;20.69
79692;BME280;69158;55.592;37.610;2023-05-10T06:05:47;100235.72;;;16.27;19.86
79692;BME280;69158;55.592;37.610;2023-05-10T06:08:33;100234.72;;;16.35;19.74
79692;BME280;69158;55.592;37.610;2023-05-10T06:11:20;100235.13;;;16.39;19.77
79692;BME280;69158;55.592;37.610;2023-05-10T06:14:07;100228.19;;;16.38;19.78
79692;BME280;69158;55.592;37.610;2023-05-10T06:16:57;100228.19;;;16.38;19.73
79692;BME280;69158;55.592;37.610;2023-05-10T06:19:45;100218.63;;;16.43;20.08
79692;BME280;69158;55.592;37.610;2023-05-10T06:22:30;100219.63;;;16.49;19.59
79692;BME280;69158;55.592;37.610;2023-05-10T06:25:17;100223.72;;;16.25;19.78
79692;BME280;69158;55.592;37.610;2023-05-10T06:28:05;100225.94;;;16.28;19.42
79692;BME280;69158;55.592;37.610;2023-05-10T06:30:50;100220.06;;;16.65;19.59
79692;BME280;69158;55.592;37.610;2023-05-10T06:33:38;100199.22;;;16.89;19.40
79692;BME280;69158;55.592;37.610;2023-05-10T06:36:23;100216.06;;;17.20;19.26
79692;BME280;69158;55.592;37.610;2023-05-10T06:39:11;100210.03;;;17.45;18.81
79692;BME280;69158;55.592;37.610;2023-05-10T06:41:58;100216.72;;;17.60;18.73
79692;BME280;69158;55.592;37.610;2023-05-10T06:44:44;100203.16;;;17.82;18.57
79692;BME280;69158;55.592;37.610;2023-05-10T06:47:33;100218.19;;;17.94;18.78
79692;BME280;69158;55.592;37.610;2023-05-10T06:50:20;100211.53;;;18.10;18.53
79692;BME280;69158;55.592;37.610;2023-05-10T06:53:06;100218.25;;;18.12;18.21
79692;BME280;69158;55.592;37.610;2023-05-10T06:55:52;100212.72;;;18.39;18.01
79692;BME280;69158;55.592;37.610;2023-05-10T06:58:39;100211.44;;;18.23;17.83
79692;BME280;69158;55.592;37.610;2023-05-10T07:01:29;100212.91;;;18.44;18.14
79692;BME280;69158;55.592;37.610;2023-05-10T07:04:15;100215.22;;;18.09;18.03
79692;BME280;69158;55.592;37.610;2023-05-10T07:07:10;100208.44;;;18.13;18.16
79692;BME280;69158;55.592;37.610;2023-05-10T07:09:56;100205.47;;;18.28;18.14
79692;BME280;69158;55.592;37.610;2023-05-10T07:12:44;100194.91;;;18.71;17.55
79692;BME280;69158;55.592;37.610;2023-05-10T07:15:31;100196.44;;;18.78;17.07
79692;BME280;69158;55.592;37.610;2023-05-10T07:18:18;100191.75;;;18.55;17.34
79692;BME280;69158;55.592;37.610;2023-05-10T07:21:05;100190.25;;;18.41;17.34
79692;BME280;69158;55.592;37.610;2023-05-10T07:23:51;100191.75;;;18.80;17.02
79692;BME280;69158;55.592;37.610;2023-05-10T07:26:39;100181.53;;;19.14;16.64
79692;BME280;69158;55.592;37.610;2023-05-10T07:29:25;100185.88;;;19.44;16.50
79692;BME280;69158;55.592;37.610;2023-05-10T07:32:11;100184.94;;;20.22;15.95
79692;BME280;69158;55.592;37.610;2023-05-10T07:34:57;100186.38;;;20.82;14.97
79692;BME280;69158;55.592;37.610;2023-05-10T07:37:43;100188.19;;;21.17;14.97
79692;BME280;69158;55.592;37.610;2023-05-10T07:40:29;100182.28;;;21.03;14.56
79692;BME280;69158;55.592;37.610;2023-05-10T07:43:15;100175.47;;;20.72;14.60
79692;BME280;69158;55.592;37.610;2023-05-10T07:46:01;100170.22;;;20.89;14.78
79692;BME280;69158;55.592;37.610;2023-05-10T07:48:48;100176.53;;;21.35;15.13
79692;BME280;69158;55.592;37.610;2023-05-10T07:51:34;100176.97;;;22.00;14.21
79692;BME280;69158;55.592;37.610;2023-05-10T07:54:20;100166.09;;;22.23;13.58
79692;BME280;69158;55.592;37.610;2023-05-10T07:57:07;100177.59;;;22.07;13.42
79692;BME280;69158;55.592;37.610;2023-05-10T07:59:54;100169.81;;;22.39;13.54
79692;BME280;69158;55.592;37.610;2023-05-10T08:02:45;100168.84;;;22.83;13.50
79692;BME280;69158;55.592;37.610;2023-05-10T08:05:31;100158.03;;;22.40;13.91
79692;BME280;69158;55.592;37.610;2023-05-10T08:08:17;100155.50;;;22.67;13.70
79692;BME280;69158;55.592;37.610;2023-05-10T08:11:03;100141.19;;;22.94;13.26
79692;BME280;69158;55.592;37.610;2023-05-10T08:13:50;100151.78;;;23.55;13.07
79692;BME280;69158;55.592;37.610;2023-05-10T08:16:37;100154.06;;;24.00;12.64
79692;BME280;69158;55.592;37.610;2023-05-10T08:19:24;100139.56;;;24.27;12.36
79692;BME280;69158;55.592;37.610;2023-05-10T08:22:10;100141.66;;;24.20;12.27
79692;BME280;69158;55.592;37.610;2023-05-10T08:24:57;100123.81;;;24.88;11.67
79692;BME280;69158;55.592;37.610;2023-05-10T08:27:44;100138.47;;;24.70;11.89
79692;BME280;69158;55.592;37.610;2023-05-10T08:30:31;100136.13;;;24.84;11.02
79692;BME280;69158;55.592;37.610;2023-05-10T08:33:18;100121.25;;;25.28;10.89
79692;BME280;69158;55.592;37.610;2023-05-10T08:36:04;100108.34;;;26.62;10.16
79692;BME280;69158;55.592;37.610;2023-05-10T08:38:50;100120.97;;;28.09;9.71
79692;BME280;69158;55.592;37.610;2023-05-10T08:41:44;100117.94;;;28.15;9.70
79692;BME280;69158;55.592;37.610;2023-05-10T08:44:36;100122.41;;;29.01;9.08
79692;BME280;69158;55.592;37.610;2023-05-10T08:47:22;100122.00;;;29.50;8.93
79692;BME280;69158;55.592;37.610;2023-05-10T08:50:09;100120.47;;;29.63;8.66
79692;BME280;69158;55.592;37.610;2023-05-10T08:52:57;100121.97;;;29.69;7.98
79692;BME280;69158;55.592;37.610;2023-05-10T08:55:46;100125.31;;;27.71;9.00
79692;BME280;69158;55.592;37.610;2023-05-10T08:58:32;100104.16;;;25.75;9.89
79692;BME280;69158;55.592;37.610;2023-05-10T09:01:19;100116.00;;;24.39;10.83
79692;BME280;69158;55.592;37.610;2023-05-10T09:04:07;100104.03;;;24.57;10.91
79692;BME280;69158;55.592;37.610;2023-05-10T09:06:54;100114.63;;;25.87;10.20
79692;BME280;69158;55.592;37.610;2023-05-10T09:09:41;100112.13;;;27.25;10.08
79692;BME280;69158;55.592;37.610;2023-05-10T09:12:27;100097.47;;;28.38;9.23
79692;BME280;69158;55.592;37.610;2023-05-10T09:15:18;100091.66;;;27.14;9.86
79692;BME280;69158;55.592;37.610;2023-05-10T09:18:13;100100.84;;;27.57;9.19
79692;BME280;69158;55.592;37.610;2023-05-10T09:21:02;100102.69;;;29.19;8.40
79692;BME280;69158;55.592;37.610;2023-05-10T09:23:50;100093.66;;;28.86;8.67
79692;BME280;69158;55.592;37.610;2023-05-10T09:26:46;100091.22;;;27.46;9.59
79692;BME280;69158;55.592;37.610;2023-05-10T09:29:42;100072.44;;;26.87;9.69
79692;BME280;69158;55.592;37.610;2023-05-10T09:32:43;100082.09;;;28.57;9.20
79692;BME280;69158;55.592;37.610;2023-05-10T09:35:32;100074.06;;;28.52;8.73
79692;BME280;69158;55.592;37.610;2023-05-10T09:38:18;100084.34;;;26.66;9.62
79692;BME280;69158;55.592;37.610;2023-05-10T09:41:15;100083.97;;;24.75;10.75
79692;BME280;69158;55.592;37.610;2023-05-10T09:44:02;100081.84;;;24.25;11.41
79692;BME280;69158;55.592;37.610;2023-05-10T09:46:50;100088.28;;;23.06;11.85
79692;BME280;69158;55.592;37.610;2023-05-10T09:49:38;100075.72;;;23.61;12.49
79692;BME280;69158;55.592;37.610;2023-05-10T09:52:26;100073.31;;;23.96;12.04
79692;BME280;69158;55.592;37.610;2023-05-10T09:55:13;100072.72;;;24.78;11.95
79692;BME280;69158;55.592;37.610;2023-05-10T09:58:00;100031.66;;;26.44;10.87
79692;BME280;69158;55.592;37.610;2023-05-10T10:00:47;100054.81;;;27.04;9.90
79692;BME280;69158;55.592;37.610;2023-05-10T10:03:33;100058.00;;;27.84;8.85
79692;BME280;69158;55.592;37.610;2023-05-10T10:06:21;100054.22;;;28.62;8.42
79692;BME280;69158;55.592;37.610;2023-05-10T10:09:08;100057.28;;;28.03;8.93
79692;BME280;69158;55.592;37.610;2023-05-10T10:11:56;100051.03;;;29.21;8.22
79692;BME280;69158;55.592;37.610;2023-05-10T10:14:42;100053.50;;;29.36;8.62
79692;BME280;69158;55.592;37.610;2023-05-10T10:17:30;100044.13;;;27.28;9.23
79692;BME280;69158;55.592;37.610;2023-05-10T10:20:20;100039.84;;;25.63;9.99
79692;BME280;69158;55.592;37.610;2023-05-10T10:23:08;100043.81;;;24.33;10.89
79692;BME280;69158;55.592;37.610;2023-05-10T10:25:54;100034.78;;;23.12;12.03
79692;BME280;69158;55.592;37.610;2023-05-10T10:34:44;100024.97;;;21.58;13.40
79692;BME280;69158;55.592;37.610;2023-05-10T10:37:45;100027.53;;;20.80;14.26
79692;BME280;69158;55.592;37.610;2023-05-10T10:40:33;100022.03;;;21.26;14.21
79692;BME280;69158;55.592;37.610;2023-05-10T10:43:27;100025.47;;;21.55;13.94
79692;BME280;69158;55.592;37.610;2023-05-10T10:46:16;100028.94;;;22.28;13.41
79692;BME280;69158;55.592;37.610;2023-05-10T10:49:10;100027.78;;;22.02;13.26
79692;BME280;69158;55.592;37.610;2023-05-10T10:52:26;100021.59;;;22.18;13.58
79692;BME280;69158;55.592;37.610;2023-05-10T10:55:22;100023.56;;;21.89;13.57
79692;BME280;69158;55.592;37.610;2023-05-10T10:58:30;100022.19;;;21.20;14.46
79692;BME280;69158;55.592;37.610;2023-05-10T11:01:18;100021.00;;;21.44;14.42
79692;BME280;69158;55.592;37.610;2023-05-10T11:04:17;99996.25;;;21.65;14.17
79692;BME280;69158;55.592;37.610;2023-05-10T11:07:17;100021.56;;;21.46;14.46
79692;BME280;69158;55.592;37.610;2023-05-10T11:10:04;100011.53;;;21.37;14.52
79692;BME280;69158;55.592;37.610;2023-05-10T11:15:48;99995.72;;;21.18;14.81
79692;BME280;69158;55.592;37.610;2023-05-10T11:18:36;99999.59;;;21.27;14.89
79692;BME280;69158;55.592;37.610;2023-05-10T11:21:22;99991.22;;;21.07;14.79
79692;BME280;69158;55.592;37.610;2023-05-10T11:24:13;99985.63;;;22.47;13.80
79692;BME280;69158;55.592;37.610;2023-05-10T11:27:01;99994.50;;;23.28;12.94
79692;BME280;69158;55.592;37.610;2023-05-10T11:29:51;99991.81;;;22.53;13.64
79692;BME280;69158;55.592;37.610;2023-05-10T11:32:39;99992.31;;;21.90;13.87
79692;BME280;69158;55.592;37.610;2023-05-10T11:35:29;99973.25;;;21.64;14.17
79692;BME280;69158;55.592;37.610;2023-05-10T11:38:16;99993.78;;;21.81;14.30
79692;BME280;69158;55.592;37.610;2023-05-10T11:41:02;99977.53;;;21.65;14.42
79692;BME280;69158;55.592;37.610;2023-05-10T11:43:53;99974.47;;;21.57;14.29
79692;BME280;69158;55.592;37.610;2023-05-10T11:46:40;99967.09;;;21.64;14.30
79692;BME280;69158;55.592;37.610;2023-05-10T11:49:29;99975.56;;;21.94;13.94
79692;BME280;69158;55.592;37.610;2023-05-10T11:52:15;99961.41;;;22.37;13.54
79692;BME280;69158;55.592;37.610;2023-05-10T11:55:03;99965.84;;;21.71;14.06
79692;BME280;69158;55.592;37.610;2023-05-10T11:57:54;99953.75;;;21.14;14.74
79692;BME280;69158;55.592;37.610;2023-05-10T12:00:40;99951.16;;;20.62;15.31
79692;BME280;69158;55.592;37.610;2023-05-10T12:03:28;99953.97;;;20.84;14.86
79692;BME280;69158;55.592;37.610;2023-05-10T12:06:14;99957.63;;;20.78;15.14
79692;BME280;69158;55.592;37.610;2023-05-10T12:09:06;99951.31;;;22.01;14.65
79692;BME280;69158;55.592;37.610;2023-05-10T12:11:55;99948.88;;;23.97;13.63
79692;BME280;69158;55.592;37.610;2023-05-10T12:14:42;99935.00;;;25.43;12.49
79692;BME280;69158;55.592;37.610;2023-05-10T12:17:28;99937.41;;;25.55;12.16
79692;BME280;69158;55.592;37.610;2023-05-10T12:20:15;99942.25;;;25.12;12.18
79692;BME280;69158;55.592;37.610;2023-05-10T12:23:05;99934.88;;;24.47;12.49
79692;BME280;69158;55.592;37.610;2023-05-10T12:25:52;99940.34;;;23.26;13.29
79692;BME280;69158;55.592;37.610;2023-05-10T12:28:40;99936.72;;;22.79;13.76
79692;BME280;69158;55.592;37.610;2023-05-10T12:31:28;99923.31;;;21.87;14.63
79692;BME280;69158;55.592;37.610;2023-05-10T12:34:23;99938.38;;;21.38;14.85
79692;BME280;69158;55.592;37.610;2023-05-10T12:37:09;99937.34;;;20.94;15.41
79692;BME280;69158;55.592;37.610;2023-05-10T12:39:56;99940.75;;;20.61;15.68
79692;BME280;69158;55.592;37.610;2023-05-10T12:42:42;99941.75;;;20.43;15.66
79692;BME280;69158;55.592;37.610;2023-05-10T12:45:32;99943.72;;;19.84;16.65
79692;BME280;69158;55.592;37.610;2023-05-10T12:48:21;99937.22;;;19.69;16.87
79692;BME280;69158;55.592;37.610;2023-05-10T12:51:08;99913.13;;;19.29;16.92
79692;BME280;69158;55.592;37.610;2023-05-10T12:53:59;99920.41;;;19.22;17.09
79692;BME280;69158;55.592;37.610;2023-05-10T12:56:56;99917.06;;;19.26;17.00
79692;BME280;69158;55.592;37.610;2023-05-10T12:59:42;99920.41;;;19.22;17.28
79692;BME280;69158;55.592;37.610;2023-05-10T13:02:28;99936.03;;;19.18;17.78
79692;BME280;69158;55.592;37.610;2023-05-10T13:05:14;99931.16;;;19.15;17.71
79692;BME280;69158;55.592;37.610;2023-05-10T13:08:01;99913.66;;;19.08;18.05
79692;BME280;69158;55.592;37.610;2023-05-10T13:10:49;99919.44;;;18.93;17.93
79692;BME280;69158;55.592;37.610;2023-05-10T13:13:35;99917.44;;;18.77;18.08
79692;BME280;69158;55.592;37.610;2023-05-10T13:16:21;99927.06;;;18.59;18.10
79692;BME280;69158;55.592;37.610;2023-05-10T13:19:07;99927.44;;;18.63;18.22
79692;BME280;69158;55.592;37.610;2023-05-10T13:21:53;99935.81;;;18.78;17.84
79692;BME280;69158;55.592;37.610;2023-05-10T13:24:39;99908.91;;;18.56;18.36
79692;BME280;69158;55.592;37.610;2023-05-10T13:27:25;99923.88;;;18.51;18.36
79692;BME280;69158;55.592;37.610;2023-05-10T13:30:12;99923.84;;;18.39;18.46
79692;BME280;69158;55.592;37.610;2023-05-10T13:33:04;99923.19;;;18.26;18.71
79692;BME280;69158;55.592;37.610;2023-05-10T13:35:49;99914.59;;;17.94;19.30
79692;BME280;69158;55.592;37.610;2023-05-10T13:38:35;99923.50;;;17.81;19.59
79692;BME280;69158;55.592;37.610;2023-05-10T13:41:22;99925.34;;;17.62;19.88
79692;BME280;69158;55.592;37.610;2023-05-10T13:44:08;99904.69;;;17.40;20.15
79692;BME280;69158;55.592;37.610;2023-05-10T13:46:54;99900.41;;;17.39;20.03
79692;BME280;69158;55.592;37.610;2023-05-10T13:49:40;99913.94;;;17.55;19.86
79692;BME280;69158;55.592;37.610;2023-05-10T13:52:26;99909.34;;;17.44;19.92
79692;BME280;69158;55.592;37.610;2023-05-10T13:55:12;99916.19;;;17.58;20.12
79692;BME280;69158;55.592;37.610;2023-05-10T13:57:58;99912.16;;;17.49;20.56
79692;BME280;69158;55.592;37.610;2023-05-10T14:00:44;99925.63;;;17.48;20.36
79692;BME280;69158;55.592;37.610;2023-05-10T14:03:33;99920.13;;;17.49;20.56
79692;BME280;69158;55.592;37.610;2023-05-10T14:06:20;99909.81;;;17.35;20.87
79692;BME280;69158;55.592;37.610;2023-05-10T14:09:08;99922.88;;;17.36;20.73
79692;BME280;69158;55.592;37.610;2023-05-10T14:11:54;99917.38;;;17.38;20.54
79692;BME280;69158;55.592;37.610;2023-05-10T14:14:42;99920.78;;;17.45;20.87
79692;BME280;69158;55.592;37.610;2023-05-10T14:17:28;99913.63;;;17.45;20.71
79692;BME280;69158;55.592;37.610;2023-05-10T14:20:14;99915.63;;;17.50;20.81
79692;BME280;69158;55.592;37.610;2023-05-10T14:23:01;99893.91;;;17.35;20.55
79692;BME280;69158;55.592;37.610;2023-05-10T14:25:48;99914.06;;;17.42;21.18
79692;BME280;69158;55.592;37.610;2023-05-10T14:28:36;99904.91;;;17.38;20.95
79692;BME280;69158;55.592;37.610;2023-05-10T14:31:24;99907.41;;;17.33;21.27
79692;BME280;69158;55.592;37.610;2023-05-10T14:34:11;99889.25;;;17.30;21.15
79692;BME280;69158;55.592;37.610;2023-05-10T14:36:57;99914.66;;;17.44;21.13
79692;BME280;69158;55.592;37.610;2023-05-10T14:39:42;99901.81;;;17.41;21.16
79692;BME280;69158;55.592;37.610;2023-05-10T14:42:29;99897.00;;;17.32;21.42
79692;BME280;69158;55.592;37.610;2023-05-10T14:45:17;99908.16;;;17.40;21.28
79692;BME280;69158;55.592;37.610;2023-05-10T14:48:03;99890.59;;;17.21;21.30
79692;BME280;69158;55.592;37.610;2023-05-10T14:50:50;99879.81;;;17.16;21.28
79692;BME280;69158;55.592;37.610;2023-05-10T14:53:39;99896.69;;;17.21;21.32
79692;BME280;69158;55.592;37.610;2023-05-10T14:56:25;99894.31;;;17.13;21.45
79692;BME280;69158;55.592;37.610;2023-05-10T14:59:11;99893.44;;;17.19;21.35
79692;BME280;69158;55.592;37.610;2023-05-10T15:01:57;99874.78;;;17.08;21.78
79692;BME280;69158;55.592;37.610;2023-05-10T15:04:43;99880.28;;;17.06;21.79
79692;BME280;69158;55.592;37.610;2023-05-10T15:07:29;99893.06;;;17.16;21.46